Racecast

Deja Williams

Full Stride (CA) · - · STS · Compare head to head

Athlete rating 72.1 2016 XC season
Best race 71.7 XC
Races 69
Seasons 4 2014 — 2017
Rating scale ?

Cross Country

2016 XC 71.7

Full Stride (CA) · Grade -

Date Meet Event Result Place Rating Difficulty PR/SR Flags
2016-10-16 Joaquin Miller Park 3000m 26:25.7 9th · 1st on team 71.7 +0.040 ★PR ★CR ★R SR CSR RSR

Track & Field

2017 TF

Full Stride (CA) · Grade -

Date Meet Event Result Place Rating Difficulty PR/SR Flags
2017-06-03 M.P. Striders USATF PA Youth Sectionals 100m 15.23 24th · 3rd on team -0.033
2017-06-03 M.P. Striders USATF PA Youth Sectionals 200m 32.05 24th · 4th on team -0.033
2017-05-21 Stockton Saints Invitational 400m 1:20.45 31st · 6th on team -0.043
2017-05-21 Stockton Saints Invitational 200m 31.05 39th · 3rd on team -0.043 ★PR SR
2017-05-21 Stockton Saints Invitational 80mh 18.81 11th · 1st on team -0.043 ★PR SR
2017-05-07 Hercules/Running Rebels USATF PA Youth T&F javelin 11.60m -0.047
2017-05-07 Hercules/Running Rebels USATF PA Youth T&F 100m 14.8 34th · 2nd on team -0.047 ★PR SR
2017-04-29 RETC USATF PA Youth T&F 100m 15.81 29th · 1st on team -0.032
2017-04-29 RETC USATF PA Youth T&F 80mh 19.78 7th · 1st on team -0.032 PR SR
2017-04-29 RETC USATF PA Youth T&F 200m 32.79 23rd · 1st on team -0.032
2017-04-22 Shor/Sheppard USATF PA Youth T&F 400m 1:18.16 39th · 4th on team -0.046
2017-04-22 Shor/Sheppard USATF PA Youth T&F 200m 32.06 19th · 2nd on team -0.046
2017-04-22 Shor/Sheppard USATF PA Youth T&F 100m 15.2 23rd · 3rd on team -0.046
2017-04-15 C. A. Track Club Youth Meet - Registration on CoachO.com 200m 31.88 11th · 2nd on team -0.048
2017-04-15 C. A. Track Club Youth Meet - Registration on CoachO.com 400m 1:20.23 15th · 2nd on team -0.048
2017-04-15 C. A. Track Club Youth Meet - Registration on CoachO.com 100m 15.35 8th · 2nd on team -0.048
2017-04-08 Hampton-Phillips Classic Track Club USATF PA Youth T&F Meet 100m 15 12th · 2nd on team -0.046 PR SR
2017-04-08 Hampton-Phillips Classic Track Club USATF PA Youth T&F Meet 200m 31.87 23rd · 3rd on team -0.046 SR
2017-04-08 Hampton-Phillips Classic Track Club USATF PA Youth T&F Meet 400m 1:20.62 18th · 2nd on team -0.046
2017-03-11 Flying Jaguars Youth Track Meet 100m 15.61 22nd · 2nd on team -0.037 SR
2017-03-11 Flying Jaguars Youth Track Meet 400m 1:16.93 31st · 3rd on team -0.037 ★PR SR

2016 TF

Full Stride (CA) · Grade -

Date Meet Event Result Place Rating Difficulty PR/SR Flags
2016-06-12 USATF Pacific Association Youth Championship 100m 15.25 51st · 2nd on team -0.043 SR
2016-06-12 USATF Pacific Association Youth Championship 200m 33.03 61st · 3rd on team -0.043
2016-06-12 USATF Pacific Association Youth Championship 400m 1:23.53 47th · 3rd on team -0.043
2016-05-15 3M USATF Youth T&F Meet 100m 15.27 38th · 1st on team -0.040 SR
2016-05-15 3M USATF Youth T&F Meet 400m 1:28.53 70th · 4th on team -0.040
2016-05-15 3M USATF Youth T&F Meet 200m 32.01 48th · 3rd on team -0.040 SR
2016-05-01 Tommie Smith Invitational 200m 32.81 15th · 2nd on team -0.041 SR
2016-05-01 Tommie Smith Invitational 400m 1:25.24 17th · 3rd on team -0.041
2016-05-01 Tommie Smith Invitational 100m 15.7 23rd · 1st on team -0.041
2016-04-17 CA Track Invitational javelin 39-06 -0.038
2016-04-17 CA Track Invitational 100m 15.73 11th · 2nd on team -0.038
2016-04-17 CA Track Invitational 400m 1:24.86 16th · 3rd on team -0.038
2016-04-09 Contra Costa Cheetahs Invitational 100m 16.09 32nd · 3rd on team -0.030
2016-04-02 Sac Speed Factory USATF Youth T&F Meet 200m 33.52 59th · 3rd on team -0.042 SR
2016-04-02 Sac Speed Factory USATF Youth T&F Meet 100m 15.57 42nd · 3rd on team -0.042 SR
2016-04-02 Sac Speed Factory USATF Youth T&F Meet 400m 1:21.96 77th · 3rd on team -0.042 SR

2015 TF

Full Stride (CA) · Grade -

Date Meet Event Result Place Rating Difficulty PR/SR Flags
2015-06-21 USATF Pacific Association Junior Olympic Championships 200m 32.16 18th · 1st on team -0.039
2015-05-31 PAC (Pacific Association Youth Champions 100m 15.72 28th · 1st on team -0.032
2015-05-31 PAC (Pacific Association Youth Champions 200m 31.54 20th · 1st on team -0.032 PR SR
2015-05-16 3M Track Club Track and Field Invitation 100m 15.6 17th · 1st on team -0.040
2015-05-16 3M Track Club Track and Field Invitation 200m 32.77 16th · 1st on team -0.040
2015-05-02 Running Rebels/Top Pacers Invitational 100m 16.04 24th · 3rd on team -0.047
2015-05-02 Running Rebels/Top Pacers Invitational 400m 1:21.12 20th · 2nd on team -0.047 PR SR
2015-05-02 Running Rebels/Top Pacers Invitational 200m 32.6 15th · 1st on team -0.047 PR SR
2015-04-25 Revolution Express Track Club 100m 16.58 23rd · 2nd on team -0.032
2015-04-25 Revolution Express Track Club 400m 1:23.54 30th · 2nd on team -0.032
2015-04-25 Revolution Express Track Club 200m 34.59 18th · 3rd on team -0.032
2015-04-18 CA Track Club 400m 1:30.82 12th · 2nd on team -0.048
2015-04-18 CA Track Club 100m 15.18 1st · 1st on team -0.048 PR SR
2015-04-18 CA Track Club 200m 32.9 4th · 1st on team -0.048 PR SR
2015-04-04 Sacramento Speed Factory 100m 15.58 10th · 1st on team -0.042 SR
2015-04-04 Sacramento Speed Factory 200m 33.49 6th · 1st on team -0.042 PR SR
2015-03-28 Contra Costa Cheetahs javelin 28-08 -0.030
2015-03-28 Contra Costa Cheetahs 200m 33.6 12th · 2nd on team -0.030 PR SR
2015-03-28 Contra Costa Cheetahs 100m 15.74 15th · 2nd on team -0.030
2015-03-21 RPM Legacy javelin 45-01 -0.030
2015-03-21 RPM Legacy 100m 15.7 14th · 1st on team -0.030 SR
2015-03-21 RPM Legacy 400m 1:22.56 29th · 2nd on team -0.030 PR SR

2014 TF

Full Stride (CA) · Grade -

Date Meet Event Result Place Rating Difficulty PR/SR Flags
2014-06-20 USATF Pacific Assoc. Junior Olympics (Top 8) javelin 6.03m -0.038
2014-06-20 USATF Pacific Assoc. Junior Olympics (Top 8) 200m 33.62 33rd · 1st on team -0.038 PR SR
2014-06-20 USATF Pacific Assoc. Junior Olympics (Top 8) 100m 15.97 26th · 1st on team -0.038
2014-05-31 Pacific Association Championships (PAC) javelin DNS -0.032
2014-05-31 Pacific Association Championships (PAC) 100m 15.56 20th · 1st on team -0.032 PR SR
2014-05-24 Central Valley Roadrunners javelin 6.68m -0.043
2014-05-24 Central Valley Roadrunners 100m 16.24 8th · 3rd on team -0.043 PR SR
2014-05-24 Central Valley Roadrunners 100m 16.33 9th · 4th on team -0.043
2014-05-24 Central Valley Roadrunners 200m 34.25 18th · 3rd on team -0.043 PR SR